createdAt,value
2023-02-04T00:00:20.173Z,1.33
2023-02-04T00:02:48.277Z,1.50
2023-02-04T00:05:18.211Z,1.50
2023-02-04T00:07:47.525Z,1.50
2023-02-04T00:10:15.686Z,1.45
2023-02-04T00:12:43.564Z,1.42
2023-02-04T00:15:11.641Z,1.60
2023-02-04T00:17:39.629Z,1.60
2023-02-04T00:20:08.237Z,1.52
2023-02-04T00:22:36.094Z,1.45
2023-02-04T00:25:05.689Z,1.60
2023-02-04T00:27:33.587Z,1.63
2023-02-04T00:30:03.218Z,1.50
2023-02-04T00:32:31.077Z,1.38
2023-02-04T00:34:59.028Z,1.48
2023-02-04T00:37:27.104Z,1.65
2023-02-04T00:39:54.927Z,1.52
2023-02-04T00:42:24.543Z,1.45
2023-02-04T00:44:52.450Z,1.50
2023-02-04T00:47:20.278Z,1.90
2023-02-04T00:49:48.167Z,1.50
2023-02-04T00:52:15.998Z,1.45
2023-02-04T00:54:43.850Z,1.40
2023-02-04T00:57:11.746Z,1.20
2023-02-04T00:59:41.024Z,1.55
2023-02-04T01:02:09.119Z,1.90
2023-02-04T01:04:37.016Z,1.58
2023-02-04T01:07:04.946Z,1.27
2023-02-04T01:09:32.890Z,1.15
2023-02-04T01:12:00.772Z,1.30
2023-02-04T01:14:28.634Z,1.08
2023-02-04T01:16:58.122Z,1.10
2023-02-04T01:19:27.421Z,1.20
2023-02-04T01:21:55.552Z,1.15
2023-02-04T01:24:23.407Z,1.27
2023-02-04T01:27:09.942Z,1.10
2023-02-04T01:29:37.835Z,1.30
2023-02-04T01:32:07.402Z,1.27
2023-02-04T01:34:35.825Z,1.30
2023-02-04T01:37:03.675Z,1.13
2023-02-04T01:39:31.636Z,1.20
2023-02-04T01:42:00.937Z,1.30
2023-02-04T01:44:29.349Z,1.40
2023-02-04T01:46:57.731Z,1.08
2023-02-04T01:49:27.644Z,1.25
2023-02-04T01:51:55.579Z,1.10
2023-02-04T01:54:23.537Z,0.90
2023-02-04T01:56:51.677Z,0.90
2023-02-04T01:59:20.216Z,1.00
2023-02-04T02:01:49.912Z,0.80
2023-02-04T02:04:21.732Z,1.08
2023-02-04T02:06:55.316Z,0.80
2023-02-04T02:09:23.424Z,1.02
2023-02-04T02:11:51.364Z,1.13
2023-02-04T02:14:19.313Z,1.02
2023-02-04T02:16:47.410Z,1.08
2023-02-04T02:19:21.396Z,0.80
2023-02-04T02:21:56.552Z,1.25
2023-02-04T02:24:30.656Z,1.35
2023-02-04T02:27:01.024Z,1.63
2023-02-04T02:29:29.184Z,1.80
2023-02-04T02:31:58.373Z,1.83
2023-02-04T02:34:28.371Z,2.20
2023-02-04T02:36:57.500Z,1.90
2023-02-04T02:39:26.270Z,2.30
2023-02-04T02:41:55.964Z,3.00
2023-02-04T02:44:24.783Z,2.42
2023-02-04T02:46:52.944Z,2.60
2023-02-04T02:49:21.484Z,3.05
2023-02-04T02:51:49.969Z,3.63
2023-02-04T02:54:24.007Z,2.22
2023-02-04T02:56:56.666Z,2.58
2023-02-04T02:59:25.953Z,2.88
2023-02-04T03:01:57.922Z,3.30
2023-02-04T03:04:29.055Z,3.17
2023-02-04T03:06:57.307Z,2.72
2023-02-04T03:09:26.744Z,3.40
2023-02-04T03:11:56.375Z,3.58
2023-02-04T03:14:25.479Z,4.03
2023-02-04T03:16:55.220Z,3.78
2023-02-04T03:19:24.002Z,3.03
2023-02-04T03:21:52.091Z,3.55
2023-02-04T03:24:20.131Z,3.58
2023-02-04T03:26:48.147Z,4.28
2023-02-04T03:29:17.351Z,3.38
2023-02-04T03:31:45.350Z,4.18
2023-02-04T03:34:13.316Z,3.55
2023-02-04T03:36:41.239Z,4.07
2023-02-04T03:39:09.096Z,3.83
2023-02-04T03:41:36.943Z,3.88
2023-02-04T03:44:05.116Z,3.35
2023-02-04T03:46:34.429Z,3.67
2023-02-04T03:49:02.317Z,3.55
2023-02-04T03:51:30.169Z,3.92
2023-02-04T03:53:58.087Z,3.38
2023-02-04T03:56:25.932Z,3.30
2023-02-04T03:58:53.795Z,4.15
2023-02-04T04:01:21.796Z,3.40
2023-02-04T04:03:50.991Z,3.63
2023-02-04T04:06:18.861Z,3.33
2023-02-04T04:08:46.712Z,3.47
2023-02-04T04:11:14.659Z,3.05
2023-02-04T04:13:42.680Z,3.55
2023-02-04T04:16:10.704Z,3.65
2023-02-04T04:18:38.599Z,2.85
2023-02-04T04:21:07.980Z,3.80
2023-02-04T04:23:36.012Z,3.53
2023-02-04T04:26:03.908Z,3.75
2023-02-04T04:28:31.785Z,3.67
2023-02-04T04:30:59.822Z,3.33
2023-02-04T04:33:27.714Z,3.20
2023-02-04T04:35:55.654Z,3.22
2023-02-04T04:38:24.881Z,2.40
2023-02-04T04:40:52.742Z,3.60
2023-02-04T04:43:20.939Z,3.53
2023-02-04T04:45:48.825Z,3.53
2023-02-04T04:48:16.815Z,3.25
2023-02-04T04:50:44.669Z,3.28
2023-02-04T04:53:12.533Z,3.67
2023-02-04T04:55:41.816Z,3.35
2023-02-04T04:58:10.307Z,3.15
2023-02-04T05:00:38.331Z,2.72
2023-02-04T05:03:06.204Z,3.17
2023-02-04T05:05:39.785Z,2.65
2023-02-04T05:08:10.803Z,3.10
2023-02-04T05:10:38.689Z,3.90
2023-02-04T05:13:07.918Z,3.08
2023-02-04T05:15:36.079Z,3.38
2023-02-04T05:18:04.119Z,3.17
2023-02-04T05:20:32.135Z,3.00
2023-02-04T05:23:01.097Z,2.55
2023-02-04T05:25:29.433Z,3.40
2023-02-04T05:27:57.384Z,3.08
2023-02-04T05:30:26.678Z,3.08
2023-02-04T05:32:54.560Z,2.83
2023-02-04T05:35:22.443Z,2.90
2023-02-04T05:37:50.281Z,2.30
2023-02-04T05:40:18.559Z,3.17
2023-02-04T05:42:46.422Z,2.88
2023-02-04T05:45:16.597Z,2.20
2023-02-04T05:47:46.067Z,3.28
2023-02-04T05:50:13.954Z,3.00
2023-02-04T05:52:41.813Z,3.20
2023-02-04T05:55:11.758Z,3.33
2023-02-04T05:57:40.246Z,2.60
2023-02-04T06:00:10.445Z,2.78
2023-02-04T06:02:41.087Z,3.38
2023-02-04T06:05:10.750Z,3.53
2023-02-04T06:07:38.668Z,2.55
2023-02-04T06:10:06.995Z,2.90
2023-02-04T06:12:34.870Z,2.85
2023-02-04T06:15:02.764Z,3.25
2023-02-04T06:17:30.759Z,2.95
2023-02-04T06:19:58.594Z,3.38
2023-02-04T06:22:27.819Z,3.03
2023-02-04T06:24:55.812Z,3.05
2023-02-04T06:27:24.202Z,3.45
2023-02-04T06:29:52.502Z,3.17
2023-02-04T06:32:21.563Z,3.30
2023-02-04T06:34:49.495Z,3.03
2023-02-04T06:37:17.411Z,3.72
2023-02-04T06:39:46.637Z,3.63
2023-02-04T06:42:14.521Z,3.25
2023-02-04T06:44:42.378Z,3.50
2023-02-04T06:47:10.272Z,3.40
2023-02-04T06:49:38.161Z,3.88
2023-02-04T06:52:06.578Z,3.35
2023-02-04T06:54:36.502Z,3.50
2023-02-04T06:57:07.684Z,3.45
2023-02-04T06:59:36.264Z,3.67
2023-02-04T07:02:05.074Z,3.25
2023-02-04T07:04:33.045Z,3.63
2023-02-04T07:07:00.986Z,3.80
2023-02-04T07:09:28.942Z,4.10
2023-02-04T07:11:56.874Z,2.72
2023-02-04T07:14:26.121Z,2.97
2023-02-04T07:16:53.995Z,2.92
2023-02-04T07:19:21.890Z,3.20
2023-02-04T07:21:53.933Z,2.95
2023-02-04T07:24:22.022Z,3.10
2023-02-04T07:26:49.897Z,2.75
2023-02-04T07:29:25.111Z,2.95
2023-02-04T07:31:55.274Z,3.10
2023-02-04T07:34:23.506Z,2.65
2023-02-04T07:36:51.461Z,2.95
2023-02-04T07:39:19.388Z,2.60
2023-02-04T07:41:47.588Z,3.22
2023-02-04T07:44:22.108Z,2.97
2023-02-04T07:46:50.023Z,3.00
2023-02-04T07:49:19.276Z,2.35
2023-02-04T07:51:47.117Z,2.28
2023-02-04T07:54:15.010Z,2.90
2023-02-04T07:56:42.878Z,2.53
2023-02-04T07:59:10.696Z,2.85
2023-02-04T08:01:38.617Z,2.72
2023-02-04T08:04:06.806Z,2.72
2023-02-04T08:06:36.082Z,2.47
2023-02-04T08:09:04.011Z,3.10
2023-02-04T08:11:31.868Z,2.70
2023-02-04T08:13:59.733Z,2.88
2023-02-04T08:16:28.193Z,2.08
2023-02-04T08:18:56.068Z,2.15
2023-02-04T08:21:23.950Z,2.40
2023-02-04T08:23:53.155Z,2.85
2023-02-04T08:26:21.266Z,2.40
2023-02-04T08:28:49.146Z,2.42
2023-02-04T08:31:17.143Z,2.40
2023-02-04T08:33:45.325Z,2.95
2023-02-04T08:36:13.199Z,2.30
2023-02-04T08:38:41.417Z,3.05
2023-02-04T08:41:10.840Z,2.47
2023-02-04T08:43:38.774Z,2.47
2023-02-04T08:46:06.679Z,2.50
2023-02-04T08:48:34.574Z,2.35
2023-02-04T08:51:02.486Z,2.40
2023-02-04T08:53:30.333Z,2.78
2023-02-04T08:56:10.592Z,2.40
2023-02-04T08:58:39.961Z,2.40
2023-02-04T09:01:08.182Z,2.53
2023-02-04T09:03:36.022Z,2.60
2023-02-04T09:06:03.973Z,2.25
2023-02-04T09:08:31.907Z,2.88
2023-02-04T09:11:00.109Z,1.88
2023-02-04T09:13:28.015Z,3.05
2023-02-04T09:15:57.401Z,2.45
2023-02-04T09:18:25.992Z,2.33
2023-02-04T09:20:54.467Z,2.63
2023-02-04T09:23:23.036Z,2.45
2023-02-04T09:25:51.151Z,2.53
2023-02-04T09:28:19.414Z,2.55
2023-02-04T09:30:48.175Z,2.50
2023-02-04T09:33:17.795Z,2.70
2023-02-04T09:35:45.728Z,2.50
2023-02-04T09:38:13.669Z,2.45
2023-02-04T09:40:43.835Z,2.40
2023-02-04T09:43:17.156Z,2.63
2023-02-04T09:48:15.237Z,2.83
2023-02-04T09:50:44.761Z,2.58
2023-02-04T09:53:15.971Z,2.78
2023-02-04T09:55:46.432Z,2.33
2023-02-04T09:58:17.428Z,2.00
2023-02-04T10:00:46.876Z,2.38
2023-02-04T10:03:18.330Z,2.45
2023-02-04T10:05:48.506Z,2.35
2023-02-04T10:08:18.389Z,2.42
2023-02-04T10:10:47.588Z,2.13
2023-02-04T10:13:20.099Z,2.20
2023-02-04T10:15:50.303Z,2.07
2023-02-04T10:18:25.685Z,2.78
2023-02-04T10:20:58.530Z,2.40
2023-02-04T10:23:26.467Z,2.42
2023-02-04T10:25:54.305Z,2.50
2023-02-04T10:28:22.460Z,2.88
2023-02-04T10:30:50.507Z,2.40
2023-02-04T10:33:24.980Z,2.60
2023-02-04T10:35:56.626Z,1.20
2023-02-04T10:38:25.078Z,0.93
2023-02-04T10:41:01.937Z,0.85
2023-02-04T10:43:30.075Z,0.98
2023-02-04T10:45:59.810Z,1.17
2023-02-04T10:48:30.106Z,1.13
2023-02-04T10:50:59.764Z,0.90
2023-02-04T10:53:45.585Z,0.98
2023-02-04T10:56:17.477Z,1.02
2023-02-04T10:58:45.710Z,1.27
2023-02-04T11:01:15.438Z,1.30
2023-02-04T11:03:47.709Z,1.20
2023-02-04T11:06:22.873Z,1.73
2023-02-04T11:08:53.528Z,1.42
2023-02-04T11:11:24.320Z,1.50
2023-02-04T11:14:02.029Z,1.60
2023-02-04T11:16:32.818Z,1.30
2023-02-04T11:19:02.993Z,1.20
2023-02-04T11:21:44.100Z,1.33
2023-02-04T11:24:26.276Z,0.90
2023-02-04T11:27:07.570Z,1.70
2023-02-04T11:29:38.351Z,1.40
2023-02-04T11:32:08.527Z,1.00
2023-02-04T11:34:48.834Z,0.77
2023-02-04T11:37:30.104Z,1.05
2023-02-04T11:40:01.241Z,0.90
2023-02-04T11:42:40.438Z,1.35
2023-02-04T11:45:15.101Z,1.17
2023-02-04T11:47:43.805Z,1.08
2023-02-04T11:50:16.948Z,1.35
2023-02-04T11:52:46.183Z,1.00
2023-02-04T11:55:14.710Z,1.05
2023-02-04T11:57:44.301Z,1.00
2023-02-04T12:00:17.861Z,1.08
2023-02-04T12:02:47.957Z,1.17
2023-02-04T12:05:17.767Z,1.00
2023-02-04T12:07:47.991Z,0.88
2023-02-04T12:10:25.395Z,1.10
2023-02-04T12:12:57.544Z,0.90
2023-02-04T12:15:33.321Z,0.90
2023-02-04T12:18:03.450Z,0.60
2023-02-04T12:20:31.408Z,1.10
2023-02-04T12:23:00.684Z,1.00
2023-02-04T12:25:28.592Z,1.27
2023-02-04T12:27:56.620Z,0.80
2023-02-04T12:30:26.095Z,1.08
2023-02-04T12:32:54.251Z,1.17
2023-02-04T12:35:22.232Z,1.45
2023-02-04T12:37:50.090Z,1.30
2023-02-04T12:40:23.826Z,1.25
2023-02-04T12:42:51.737Z,1.25
2023-02-04T12:45:20.060Z,1.33
2023-02-04T12:47:48.414Z,1.38
2023-02-04T12:50:22.536Z,1.38
2023-02-04T12:52:54.573Z,1.40
2023-02-04T12:55:25.337Z,1.20
2023-02-04T12:57:53.951Z,1.48
2023-02-04T13:00:22.727Z,1.08
2023-02-04T13:02:50.630Z,1.50
2023-02-04T13:05:18.755Z,1.25
2023-02-04T13:07:46.607Z,1.52
2023-02-04T13:10:15.238Z,1.13
2023-02-04T13:12:44.471Z,1.35
2023-02-04T13:15:12.737Z,1.50
2023-02-04T13:17:40.574Z,1.27
2023-02-04T13:20:09.635Z,1.30
2023-02-04T13:22:37.521Z,1.05
2023-02-04T13:25:06.239Z,1.20
2023-02-04T13:27:34.146Z,1.40
2023-02-04T13:30:03.509Z,1.30
2023-02-04T13:32:31.359Z,1.30
2023-02-04T13:34:59.212Z,1.23
2023-02-04T13:37:27.412Z,1.00
2023-02-04T13:39:55.283Z,1.30
2023-02-04T13:42:23.131Z,1.30
2023-02-04T13:44:50.996Z,1.30
2023-02-04T13:47:20.206Z,1.20
2023-02-04T13:49:48.105Z,1.30
2023-02-04T13:52:18.296Z,1.23
2023-02-04T13:54:46.290Z,1.52
2023-02-04T13:57:14.346Z,1.42
2023-02-04T13:59:42.161Z,1.40
2023-02-04T14:02:10.300Z,1.50
2023-02-04T14:04:39.577Z,1.50
2023-02-04T14:07:07.457Z,1.60
2023-02-04T14:09:35.301Z,1.60
2023-02-04T14:12:03.218Z,1.80
2023-02-04T14:14:31.128Z,1.38
2023-02-04T14:16:59.041Z,1.80
2023-02-04T14:19:27.649Z,1.17
2023-02-04T14:21:56.894Z,1.40
2023-02-04T14:24:24.862Z,1.73
2023-02-04T14:26:52.782Z,1.25
2023-02-04T14:29:20.873Z,1.13
2023-02-04T14:31:48.806Z,1.45
2023-02-04T14:34:16.688Z,1.00
2023-02-04T14:36:44.576Z,1.40
2023-02-04T14:39:13.768Z,1.38
2023-02-04T14:41:41.708Z,1.17
2023-02-04T14:44:09.711Z,1.10
2023-02-04T14:46:37.599Z,1.15
2023-02-04T14:49:05.521Z,1.00
2023-02-04T14:51:33.383Z,1.00
2023-02-04T14:54:02.422Z,1.05
2023-02-04T14:56:31.736Z,1.20
2023-02-04T14:58:59.602Z,1.23
2023-02-04T15:01:27.782Z,1.08
2023-02-04T15:03:55.726Z,1.20
2023-02-04T15:06:23.604Z,1.30
2023-02-04T15:08:51.525Z,1.30
2023-02-04T15:11:19.413Z,1.50
2023-02-04T15:13:48.641Z,1.30
2023-02-04T15:16:16.576Z,1.20
2023-02-04T15:18:44.613Z,1.45
2023-02-04T15:21:13.080Z,1.20
2023-02-04T15:23:40.973Z,1.27
2023-02-04T15:26:08.961Z,1.58
2023-02-04T15:28:37.338Z,1.20
2023-02-04T15:31:06.732Z,1.40
2023-02-04T15:33:34.721Z,1.63
2023-02-04T15:36:02.772Z,1.10
2023-02-04T15:38:30.764Z,1.02
2023-02-04T15:40:58.583Z,1.20
2023-02-04T15:43:26.511Z,1.30
2023-02-04T15:45:54.452Z,1.30
2023-02-04T15:48:24.290Z,1.40
2023-02-04T15:50:52.289Z,1.30
2023-02-04T15:53:20.272Z,1.40
2023-02-04T15:55:48.241Z,1.40
2023-02-04T15:58:16.724Z,1.27
2023-02-04T16:00:44.656Z,1.60
2023-02-04T16:03:12.578Z,1.83
2023-02-04T16:05:41.883Z,1.50
2023-02-04T16:08:09.772Z,1.48
2023-02-04T16:10:37.683Z,1.70
2023-02-04T16:13:05.560Z,1.52
2023-02-04T16:15:33.839Z,1.48
2023-02-04T16:18:01.874Z,1.60
2023-02-04T16:20:29.790Z,1.45
2023-02-04T16:22:59.067Z,1.30
2023-02-04T16:25:26.964Z,1.35
2023-02-04T16:27:54.845Z,1.65
2023-02-04T16:30:22.943Z,1.55
2023-02-04T16:32:50.817Z,1.60
2023-02-04T16:35:18.929Z,1.63
2023-02-04T16:37:46.782Z,1.60
2023-02-04T16:40:16.112Z,1.80
2023-02-04T16:42:43.988Z,1.85
2023-02-04T16:45:12.246Z,1.50
2023-02-04T16:47:40.149Z,2.45
2023-02-04T16:50:08.663Z,2.15
2023-02-04T16:52:36.607Z,2.05
2023-02-04T16:55:04.515Z,2.05
2023-02-04T16:57:33.752Z,2.28
2023-02-04T17:00:01.787Z,1.73
2023-02-04T17:02:29.728Z,1.88
2023-02-04T17:04:57.634Z,1.80
2023-02-04T17:07:25.508Z,1.90
2023-02-04T17:09:53.379Z,1.95
2023-02-04T17:12:21.240Z,2.40
2023-02-04T17:14:50.583Z,2.10
2023-02-04T17:17:19.279Z,2.10
2023-02-04T17:19:47.176Z,2.70
2023-02-04T17:22:15.398Z,3.05
2023-02-04T17:24:44.467Z,2.90
2023-02-04T17:27:13.232Z,2.90
2023-02-04T17:29:41.220Z,2.55
2023-02-04T17:32:12.464Z,2.10
2023-02-04T17:34:40.431Z,2.13
2023-02-04T17:37:08.374Z,2.30
2023-02-04T17:39:36.263Z,1.52
2023-02-04T17:42:04.293Z,1.85
2023-02-04T17:44:32.268Z,1.80
2023-02-04T17:47:00.211Z,2.30
2023-02-04T17:49:31.675Z,2.22
2023-02-04T17:52:01.076Z,2.92
2023-02-04T17:54:29.060Z,2.28
2023-02-04T17:56:58.358Z,2.00
2023-02-04T17:59:27.170Z,1.75
2023-02-04T18:01:55.467Z,2.03
2023-02-04T18:04:23.688Z,2.00
2023-02-04T18:06:53.552Z,2.33
2023-02-04T18:09:21.485Z,1.95
2023-02-04T18:11:49.379Z,2.08
2023-02-04T18:14:21.563Z,2.10
2023-02-04T18:16:50.028Z,2.53
2023-02-04T18:19:19.939Z,2.63
2023-02-04T18:21:49.767Z,3.10
2023-02-04T18:24:20.771Z,2.70
2023-02-04T18:26:50.347Z,2.50
2023-02-04T18:29:30.327Z,2.45
2023-02-04T18:32:00.727Z,2.63
2023-02-04T18:34:35.071Z,2.38
2023-02-04T18:37:25.092Z,2.80
2023-02-04T18:39:57.657Z,1.95
2023-02-04T18:42:27.896Z,2.20
2023-02-04T18:44:56.788Z,2.45
2023-02-04T18:47:32.432Z,2.50
2023-02-04T18:50:01.898Z,2.40
2023-02-04T18:52:37.380Z,2.80
2023-02-04T18:55:22.800Z,2.80
2023-02-04T18:57:50.705Z,3.22
2023-02-04T19:00:32.708Z,2.88
2023-02-04T19:03:05.713Z,2.30
2023-02-04T19:05:35.695Z,2.65
2023-02-04T19:08:25.909Z,3.00
2023-02-04T19:10:56.475Z,2.70
2023-02-04T19:13:26.737Z,2.60
2023-02-04T19:16:00.897Z,2.55
2023-02-04T19:21:35.715Z,2.72
2023-02-04T19:24:16.487Z,3.38
2023-02-04T19:26:52.683Z,3.30
2023-02-04T19:29:37.708Z,3.38
2023-02-04T19:32:30.391Z,3.17
2023-02-04T19:35:16.316Z,4.20
2023-02-04T19:37:45.527Z,3.83
2023-02-04T19:40:26.038Z,4.03
2023-02-04T19:42:59.610Z,4.35
2023-02-04T19:45:27.549Z,4.38
2023-02-04T19:47:56.788Z,4.13
2023-02-04T19:50:27.684Z,4.00
2023-02-04T19:53:01.782Z,3.88
2023-02-04T19:55:33.399Z,3.80
2023-02-04T19:58:12.153Z,4.00
2023-02-04T20:00:57.616Z,3.55
2023-02-04T20:03:40.488Z,3.88
2023-02-04T20:06:30.199Z,3.78
2023-02-04T20:09:03.739Z,4.05
2023-02-04T20:11:56.073Z,4.10
2023-02-04T20:14:46.213Z,3.63
2023-02-04T20:17:36.437Z,3.65
2023-02-04T20:20:22.797Z,4.15
2023-02-04T20:22:52.713Z,3.65
2023-02-04T20:25:46.687Z,5.15
2023-02-04T20:28:30.198Z,5.22
2023-02-04T20:31:01.664Z,4.28
2023-02-04T20:33:42.646Z,4.90
2023-02-04T20:36:29.364Z,4.28
2023-02-04T20:39:10.523Z,4.28
2023-02-04T20:41:50.346Z,4.40
2023-02-04T20:44:23.587Z,5.07
2023-02-04T20:46:52.823Z,4.43
2023-02-04T20:49:24.640Z,4.40
2023-02-04T20:51:52.747Z,4.75
2023-02-04T20:54:20.588Z,4.45
2023-02-04T20:56:48.465Z,4.38
2023-02-04T20:59:29.868Z,4.55
2023-02-04T21:02:00.200Z,4.38
2023-02-04T21:04:32.213Z,4.82
2023-02-04T21:07:03.344Z,4.35
2023-02-04T21:09:38.687Z,4.85
2023-02-04T21:12:07.009Z,4.32
2023-02-04T21:14:35.146Z,4.45
2023-02-04T21:17:04.960Z,4.40
2023-02-04T21:19:33.804Z,4.07
2023-02-04T21:22:02.093Z,4.45
2023-02-04T21:24:31.456Z,4.90
2023-02-04T21:26:59.388Z,5.05
2023-02-04T21:29:27.336Z,4.03
2023-02-04T21:31:55.311Z,4.97
2023-02-04T21:34:24.548Z,4.40
2023-02-04T21:36:52.503Z,4.88
2023-02-04T21:39:21.844Z,5.30
2023-02-04T21:42:10.575Z,4.38
2023-02-04T21:44:38.549Z,4.72
2023-02-04T21:47:06.795Z,5.10
2023-02-04T21:49:39.004Z,4.80
2023-02-04T21:54:36.364Z,5.45
2023-02-04T21:57:04.471Z,5.05
2023-02-04T21:59:32.504Z,5.20
2023-02-04T22:02:00.446Z,5.45
2023-02-04T22:04:29.036Z,4.95
2023-02-04T22:06:58.223Z,5.57
2023-02-04T22:09:26.053Z,5.82
2023-02-04T22:11:53.912Z,5.70
2023-02-04T22:14:39.530Z,5.38
2023-02-04T22:17:07.380Z,5.50
2023-02-04T22:19:35.224Z,5.40
2023-02-04T22:22:04.667Z,5.30
2023-02-04T22:24:32.540Z,5.55
2023-02-04T22:27:00.402Z,4.65
2023-02-04T22:29:30.060Z,5.55
2023-02-04T22:31:58.014Z,5.85
2023-02-04T22:34:26.098Z,5.35
2023-02-04T22:36:55.472Z,5.22
2023-02-04T22:39:25.043Z,5.10
2023-02-04T22:41:52.952Z,5.13
2023-02-04T22:44:20.902Z,5.95
2023-02-04T22:46:48.774Z,5.20
2023-02-04T22:49:16.634Z,5.03
2023-02-04T22:51:44.489Z,4.95
2023-02-04T22:54:12.347Z,4.63
2023-02-04T22:56:41.570Z,5.15
2023-02-04T22:59:09.427Z,5.65
2023-02-04T23:01:37.350Z,4.80
2023-02-04T23:04:05.274Z,5.07
2023-02-04T23:06:33.296Z,5.50
2023-02-04T23:09:01.295Z,5.50
2023-02-04T23:11:29.163Z,4.93
2023-02-04T23:13:58.383Z,5.40
2023-02-04T23:16:26.318Z,5.07
2023-02-04T23:18:54.198Z,5.38
2023-02-04T23:21:22.917Z,4.45
2023-02-04T23:23:51.185Z,5.43
2023-02-04T23:26:19.244Z,4.63
2023-02-04T23:28:47.163Z,4.85
2023-02-04T23:31:16.449Z,4.90
2023-02-04T23:33:44.345Z,5.28
2023-02-04T23:36:12.667Z,5.80
2023-02-04T23:38:40.506Z,4.80
2023-02-04T23:41:08.358Z,5.13
2023-02-04T23:43:36.245Z,4.95
2023-02-04T23:46:04.233Z,5.22
2023-02-04T23:48:33.502Z,5.10
2023-02-04T23:51:01.366Z,5.78
2023-02-04T23:53:29.208Z,4.70
2023-02-04T23:55:57.058Z,5.20
2023-02-04T23:58:24.925Z,5.05
